createdAt,value
2022-07-29T00:03:41.989Z,44
2022-07-29T00:18:41.893Z,44
2022-07-29T00:48:41.877Z,45
2022-07-29T01:03:41.852Z,45
2022-07-29T01:18:41.785Z,46
2022-07-29T01:33:41.802Z,48
2022-07-29T01:48:41.820Z,48
2022-07-29T02:03:41.734Z,48
2022-07-29T02:18:41.703Z,49
2022-07-29T02:33:41.697Z,49
2022-07-29T02:48:41.689Z,49
2022-07-29T03:03:41.632Z,49
2022-07-29T03:18:41.569Z,49
2022-07-29T03:33:41.571Z,50
2022-07-29T03:48:41.573Z,50
2022-07-29T04:03:41.561Z,51
2022-07-29T04:18:41.460Z,51
2022-07-29T04:33:41.453Z,51
2022-07-29T04:48:41.436Z,51
2022-07-29T05:18:41.347Z,50
2022-07-29T05:33:41.357Z,50
2022-07-29T05:48:41.340Z,50
2022-07-29T06:03:41.290Z,48
2022-07-29T06:18:41.228Z,48
2022-07-29T06:33:41.209Z,49
2022-07-29T06:48:41.273Z,50
2022-07-29T07:03:41.149Z,48
2022-07-29T07:33:41.122Z,48
2022-07-29T07:48:41.111Z,48
2022-07-29T08:03:41.064Z,50
2022-07-29T08:18:41.010Z,51
2022-07-29T08:33:41.024Z,52
2022-07-29T08:48:40.984Z,54
2022-07-29T09:03:41.047Z,61
2022-07-29T09:18:40.930Z,67
2022-07-29T09:48:40.943Z,78
2022-07-29T10:03:40.928Z,81
2022-07-29T10:18:40.805Z,83
2022-07-29T10:33:40.810Z,84
2022-07-29T10:48:40.772Z,85
2022-07-29T11:03:40.851Z,85
2022-07-29T11:18:40.692Z,86
2022-07-29T11:33:56.125Z,87
2022-07-29T11:48:40.696Z,87
2022-07-29T12:03:40.711Z,87
2022-07-29T12:18:40.590Z,88
2022-07-29T12:33:40.610Z,87
2022-07-29T12:48:40.651Z,83
2022-07-29T13:03:40.558Z,81
2022-07-29T13:18:40.488Z,80
2022-07-29T13:33:40.491Z,79
2022-07-29T13:48:40.523Z,77
2022-07-29T14:03:40.471Z,77
2022-07-29T14:18:40.387Z,76
2022-07-29T14:33:40.400Z,74
2022-07-29T14:48:40.370Z,73
2022-07-29T15:03:40.340Z,72
2022-07-29T15:18:40.278Z,71
2022-07-29T15:33:40.283Z,70
2022-07-29T15:48:40.312Z,68
2022-07-29T16:03:43.106Z,67
2022-07-29T16:18:40.208Z,65
2022-07-29T16:33:55.542Z,63
2022-07-29T16:48:40.159Z,62
2022-07-29T17:03:40.117Z,59
2022-07-29T17:18:40.055Z,58
2022-07-29T17:33:40.058Z,58
2022-07-29T17:48:40.023Z,56
2022-07-29T18:03:40.013Z,56
2022-07-29T18:18:39.944Z,55
2022-07-29T18:33:39.928Z,57
2022-07-29T18:48:39.945Z,59
2022-07-29T19:03:39.902Z,60
2022-07-29T19:18:39.827Z,60
2022-07-29T19:33:39.808Z,61
2022-07-29T19:48:39.813Z,62
2022-07-29T20:03:40.016Z,62
2022-07-29T20:18:39.724Z,63
2022-07-29T20:33:39.698Z,63
2022-07-29T20:48:39.957Z,63
2022-07-29T21:03:39.639Z,65
2022-07-29T21:18:39.617Z,65
2022-07-29T21:33:39.587Z,66
2022-07-29T21:48:44.021Z,67
2022-07-29T22:03:39.575Z,67
2022-07-29T22:18:39.507Z,68
2022-07-29T22:33:39.513Z,69
2022-07-29T22:48:39.574Z,69
2022-07-29T23:03:39.540Z,69
2022-07-29T23:18:39.413Z,70
2022-07-29T23:33:39.411Z,71
2022-07-29T23:48:39.361Z,72
